sensor_id;sensor_type;location;lat;lon;timestamp;P1;durP1;ratioP1;P2;durP2;ratioP2
69894;SDS011;57172;52.034;5.090;2023-04-03T00:00:53;4.20;;;1.90;;
69894;SDS011;57172;52.034;5.090;2023-04-03T00:03:20;5.13;;;2.08;;
69894;SDS011;57172;52.034;5.090;2023-04-03T00:05:47;3.50;;;1.90;;
69894;SDS011;57172;52.034;5.090;2023-04-03T00:08:14;3.35;;;1.88;;
69894;SDS011;57172;52.034;5.090;2023-04-03T00:10:41;4.03;;;1.98;;
69894;SDS011;57172;52.034;5.090;2023-04-03T00:13:08;2.85;;;1.70;;
69894;SDS011;57172;52.034;5.090;2023-04-03T00:15:35;5.05;;;2.10;;
69894;SDS011;57172;52.034;5.090;2023-04-03T00:18:03;3.63;;;1.75;;
69894;SDS011;57172;52.034;5.090;2023-04-03T00:20:30;4.22;;;1.90;;
69894;SDS011;57172;52.034;5.090;2023-04-03T00:22:58;3.72;;;1.92;;
69894;SDS011;57172;52.034;5.090;2023-04-03T00:25:25;2.80;;;1.70;;
69894;SDS011;57172;52.034;5.090;2023-04-03T00:27:52;2.83;;;1.67;;
69894;SDS011;57172;52.034;5.090;2023-04-03T00:30:19;4.13;;;1.95;;
69894;SDS011;57172;52.034;5.090;2023-04-03T00:32:48;5.57;;;1.90;;
69894;SDS011;57172;52.034;5.090;2023-04-03T00:35:15;4.22;;;1.83;;
69894;SDS011;57172;52.034;5.090;2023-04-03T00:37:43;3.67;;;1.85;;
69894;SDS011;57172;52.034;5.090;2023-04-03T00:40:10;4.65;;;1.80;;
69894;SDS011;57172;52.034;5.090;2023-04-03T00:42:40;3.90;;;1.85;;
69894;SDS011;57172;52.034;5.090;2023-04-03T00:47:44;3.63;;;1.88;;
69894;SDS011;57172;52.034;5.090;2023-04-03T00:50:11;4.05;;;1.85;;
69894;SDS011;57172;52.034;5.090;2023-04-03T00:52:38;5.15;;;1.73;;
69894;SDS011;57172;52.034;5.090;2023-04-03T00:55:07;3.65;;;1.90;;
69894;SDS011;57172;52.034;5.090;2023-04-03T00:57:35;4.15;;;1.80;;
69894;SDS011;57172;52.034;5.090;2023-04-03T01:00:08;3.30;;;1.70;;
69894;SDS011;57172;52.034;5.090;2023-04-03T01:02:37;5.35;;;1.98;;
69894;SDS011;57172;52.034;5.090;2023-04-03T01:05:08;4.15;;;1.90;;
69894;SDS011;57172;52.034;5.090;2023-04-03T01:07:36;5.93;;;1.80;;
69894;SDS011;57172;52.034;5.090;2023-04-03T01:10:06;4.40;;;1.70;;
69894;SDS011;57172;52.034;5.090;2023-04-03T01:12:37;5.70;;;2.10;;
69894;SDS011;57172;52.034;5.090;2023-04-03T01:15:22;4.30;;;1.88;;
69894;SDS011;57172;52.034;5.090;2023-04-03T01:17:58;3.10;;;1.63;;
69894;SDS011;57172;52.034;5.090;2023-04-03T01:25:38;4.55;;;2.10;;
69894;SDS011;57172;52.034;5.090;2023-04-03T01:28:18;4.07;;;2.00;;
69894;SDS011;57172;52.034;5.090;2023-04-03T01:30:49;3.83;;;1.83;;
69894;SDS011;57172;52.034;5.090;2023-04-03T01:33:21;4.18;;;1.90;;
69894;SDS011;57172;52.034;5.090;2023-04-03T01:35:48;3.75;;;1.80;;
69894;SDS011;57172;52.034;5.090;2023-04-03T01:38:16;4.15;;;1.73;;
69894;SDS011;57172;52.034;5.090;2023-04-03T01:40:42;6.28;;;2.28;;
69894;SDS011;57172;52.034;5.090;2023-04-03T01:43:10;5.22;;;2.00;;
69894;SDS011;57172;52.034;5.090;2023-04-03T01:45:37;3.70;;;1.80;;
69894;SDS011;57172;52.034;5.090;2023-04-03T01:48:04;3.60;;;1.80;;
69894;SDS011;57172;52.034;5.090;2023-04-03T01:50:31;4.82;;;2.00;;
69894;SDS011;57172;52.034;5.090;2023-04-03T01:52:59;4.05;;;2.00;;
69894;SDS011;57172;52.034;5.090;2023-04-03T01:55:26;5.95;;;2.00;;
69894;SDS011;57172;52.034;5.090;2023-04-03T01:57:53;5.35;;;2.00;;
69894;SDS011;57172;52.034;5.090;2023-04-03T02:00:21;3.67;;;2.00;;
69894;SDS011;57172;52.034;5.090;2023-04-03T02:02:49;4.68;;;2.10;;
69894;SDS011;57172;52.034;5.090;2023-04-03T02:05:16;4.80;;;2.05;;
69894;SDS011;57172;52.034;5.090;2023-04-03T02:07:43;5.35;;;2.00;;
69894;SDS011;57172;52.034;5.090;2023-04-03T02:10:10;6.43;;;2.20;;
69894;SDS011;57172;52.034;5.090;2023-04-03T02:12:37;5.38;;;2.25;;
69894;SDS011;57172;52.034;5.090;2023-04-03T02:15:04;5.03;;;2.20;;
69894;SDS011;57172;52.034;5.090;2023-04-03T02:17:31;4.95;;;2.00;;
69894;SDS011;57172;52.034;5.090;2023-04-03T02:19:58;4.93;;;2.13;;
69894;SDS011;57172;52.034;5.090;2023-04-03T02:22:25;5.35;;;2.10;;
69894;SDS011;57172;52.034;5.090;2023-04-03T02:24:52;4.75;;;2.25;;
69894;SDS011;57172;52.034;5.090;2023-04-03T02:27:19;6.03;;;2.60;;
69894;SDS011;57172;52.034;5.090;2023-04-03T02:29:47;7.28;;;2.30;;
69894;SDS011;57172;52.034;5.090;2023-04-03T02:32:14;5.50;;;2.10;;
69894;SDS011;57172;52.034;5.090;2023-04-03T02:34:42;5.53;;;2.15;;
69894;SDS011;57172;52.034;5.090;2023-04-03T02:37:11;5.40;;;2.40;;
69894;SDS011;57172;52.034;5.090;2023-04-03T02:39:39;5.97;;;2.20;;
69894;SDS011;57172;52.034;5.090;2023-04-03T02:42:06;5.05;;;2.13;;
69894;SDS011;57172;52.034;5.090;2023-04-03T02:44:34;7.35;;;2.00;;
69894;SDS011;57172;52.034;5.090;2023-04-03T02:47:01;7.38;;;2.17;;
69894;SDS011;57172;52.034;5.090;2023-04-03T02:49:29;5.65;;;2.20;;
69894;SDS011;57172;52.034;5.090;2023-04-03T02:51:56;5.28;;;2.15;;
69894;SDS011;57172;52.034;5.090;2023-04-03T02:54:23;5.60;;;2.30;;
69894;SDS011;57172;52.034;5.090;2023-04-03T02:56:56;5.35;;;2.35;;
69894;SDS011;57172;52.034;5.090;2023-04-03T02:59:24;4.90;;;2.30;;
69894;SDS011;57172;52.034;5.090;2023-04-03T03:01:51;5.18;;;2.30;;
69894;SDS011;57172;52.034;5.090;2023-04-03T03:04:19;5.53;;;2.15;;
69894;SDS011;57172;52.034;5.090;2023-04-03T03:06:46;5.15;;;2.50;;
69894;SDS011;57172;52.034;5.090;2023-04-03T03:09:13;7.20;;;2.50;;
69894;SDS011;57172;52.034;5.090;2023-04-03T03:11:41;5.53;;;2.15;;
69894;SDS011;57172;52.034;5.090;2023-04-03T03:14:08;4.63;;;2.50;;
69894;SDS011;57172;52.034;5.090;2023-04-03T03:16:35;7.00;;;2.50;;
69894;SDS011;57172;52.034;5.090;2023-04-03T03:19:02;5.85;;;2.60;;
69894;SDS011;57172;52.034;5.090;2023-04-03T03:21:29;4.05;;;2.33;;
69894;SDS011;57172;52.034;5.090;2023-04-03T03:23:56;4.97;;;2.45;;
69894;SDS011;57172;52.034;5.090;2023-04-03T03:26:23;4.35;;;2.50;;
69894;SDS011;57172;52.034;5.090;2023-04-03T03:28:51;6.45;;;2.53;;
69894;SDS011;57172;52.034;5.090;2023-04-03T03:31:18;7.88;;;2.63;;
69894;SDS011;57172;52.034;5.090;2023-04-03T03:33:45;7.05;;;2.65;;
69894;SDS011;57172;52.034;5.090;2023-04-03T03:36:12;5.20;;;2.30;;
69894;SDS011;57172;52.034;5.090;2023-04-03T03:38:39;7.22;;;2.60;;
69894;SDS011;57172;52.034;5.090;2023-04-03T03:41:07;5.15;;;2.30;;
69894;SDS011;57172;52.034;5.090;2023-04-03T03:43:34;5.88;;;2.45;;
69894;SDS011;57172;52.034;5.090;2023-04-03T03:46:03;5.50;;;2.60;;
69894;SDS011;57172;52.034;5.090;2023-04-03T03:48:30;7.05;;;2.50;;
69894;SDS011;57172;52.034;5.090;2023-04-03T03:50:57;4.53;;;2.40;;
69894;SDS011;57172;52.034;5.090;2023-04-03T03:53:28;5.68;;;2.40;;
69894;SDS011;57172;52.034;5.090;2023-04-03T03:55:59;6.50;;;2.70;;
69894;SDS011;57172;52.034;5.090;2023-04-03T03:58:28;5.10;;;2.55;;
69894;SDS011;57172;52.034;5.090;2023-04-03T04:00:56;7.43;;;2.58;;
69894;SDS011;57172;52.034;5.090;2023-04-03T04:03:23;5.45;;;2.90;;
69894;SDS011;57172;52.034;5.090;2023-04-03T04:05:50;9.57;;;3.03;;
69894;SDS011;57172;52.034;5.090;2023-04-03T04:08:17;7.38;;;2.70;;
69894;SDS011;57172;52.034;5.090;2023-04-03T04:10:45;7.40;;;2.75;;
69894;SDS011;57172;52.034;5.090;2023-04-03T04:13:14;6.32;;;2.75;;
69894;SDS011;57172;52.034;5.090;2023-04-03T04:15:41;9.32;;;2.63;;
69894;SDS011;57172;52.034;5.090;2023-04-03T04:18:09;6.00;;;2.55;;
69894;SDS011;57172;52.034;5.090;2023-04-03T04:20:36;5.20;;;2.60;;
69894;SDS011;57172;52.034;5.090;2023-04-03T04:23:03;9.98;;;3.08;;
69894;SDS011;57172;52.034;5.090;2023-04-03T04:25:31;5.70;;;2.60;;
69894;SDS011;57172;52.034;5.090;2023-04-03T04:27:59;5.88;;;2.70;;
69894;SDS011;57172;52.034;5.090;2023-04-03T04:30:26;9.77;;;2.78;;
69894;SDS011;57172;52.034;5.090;2023-04-03T04:32:55;5.65;;;2.70;;
69894;SDS011;57172;52.034;5.090;2023-04-03T04:35:23;5.57;;;2.60;;
69894;SDS011;57172;52.034;5.090;2023-04-03T04:37:51;6.55;;;2.80;;
69894;SDS011;57172;52.034;5.090;2023-04-03T04:40:18;6.88;;;2.70;;
69894;SDS011;57172;52.034;5.090;2023-04-03T04:42:47;7.15;;;2.90;;
69894;SDS011;57172;52.034;5.090;2023-04-03T04:45:14;6.72;;;2.80;;
69894;SDS011;57172;52.034;5.090;2023-04-03T04:47:43;6.30;;;3.00;;
69894;SDS011;57172;52.034;5.090;2023-04-03T04:50:11;6.82;;;2.97;;
69894;SDS011;57172;52.034;5.090;2023-04-03T04:52:38;10.10;;;2.85;;
69894;SDS011;57172;52.034;5.090;2023-04-03T04:55:07;7.13;;;3.08;;
69894;SDS011;57172;52.034;5.090;2023-04-03T04:57:34;10.45;;;3.10;;
69894;SDS011;57172;52.034;5.090;2023-04-03T05:00:02;8.20;;;3.05;;
69894;SDS011;57172;52.034;5.090;2023-04-03T05:02:30;7.80;;;3.20;;
69894;SDS011;57172;52.034;5.090;2023-04-03T05:04:57;8.57;;;3.17;;
69894;SDS011;57172;52.034;5.090;2023-04-03T05:07:27;8.05;;;2.88;;
69894;SDS011;57172;52.034;5.090;2023-04-03T05:09:55;8.02;;;3.03;;
69894;SDS011;57172;52.034;5.090;2023-04-03T05:12:22;7.47;;;3.00;;
69894;SDS011;57172;52.034;5.090;2023-04-03T05:14:54;7.15;;;2.85;;
69894;SDS011;57172;52.034;5.090;2023-04-03T05:17:22;7.50;;;3.10;;
69894;SDS011;57172;52.034;5.090;2023-04-03T05:19:52;6.38;;;3.15;;
69894;SDS011;57172;52.034;5.090;2023-04-03T05:22:21;6.93;;;2.80;;
69894;SDS011;57172;52.034;5.090;2023-04-03T05:24:50;7.05;;;3.30;;
69894;SDS011;57172;52.034;5.090;2023-04-03T05:27:18;7.95;;;3.00;;
69894;SDS011;57172;52.034;5.090;2023-04-03T05:29:52;6.57;;;2.92;;
69894;SDS011;57172;52.034;5.090;2023-04-03T05:32:21;9.10;;;3.28;;
69894;SDS011;57172;52.034;5.090;2023-04-03T05:34:57;9.02;;;3.00;;
69894;SDS011;57172;52.034;5.090;2023-04-03T05:37:27;8.52;;;3.15;;
69894;SDS011;57172;52.034;5.090;2023-04-03T05:39:55;6.30;;;2.95;;
69894;SDS011;57172;52.034;5.090;2023-04-03T05:42:22;6.05;;;3.17;;
69894;SDS011;57172;52.034;5.090;2023-04-03T05:44:49;5.70;;;2.97;;
69894;SDS011;57172;52.034;5.090;2023-04-03T05:47:17;9.73;;;3.40;;
69894;SDS011;57172;52.034;5.090;2023-04-03T05:49:44;8.60;;;3.40;;
69894;SDS011;57172;52.034;5.090;2023-04-03T05:52:20;7.72;;;3.08;;
69894;SDS011;57172;52.034;5.090;2023-04-03T05:54:55;9.43;;;3.30;;
69894;SDS011;57172;52.034;5.090;2023-04-03T05:57:25;7.55;;;3.13;;
69894;SDS011;57172;52.034;5.090;2023-04-03T05:59:52;7.65;;;3.50;;
69894;SDS011;57172;52.034;5.090;2023-04-03T06:02:21;7.78;;;3.08;;
69894;SDS011;57172;52.034;5.090;2023-04-03T06:04:50;7.93;;;3.17;;
69894;SDS011;57172;52.034;5.090;2023-04-03T06:07:19;7.93;;;2.90;;
69894;SDS011;57172;52.034;5.090;2023-04-03T06:09:49;9.07;;;2.95;;
69894;SDS011;57172;52.034;5.090;2023-04-03T06:12:17;7.20;;;2.75;;
69894;SDS011;57172;52.034;5.090;2023-04-03T06:14:45;7.93;;;3.03;;
69894;SDS011;57172;52.034;5.090;2023-04-03T06:17:14;11.00;;;3.20;;
69894;SDS011;57172;52.034;5.090;2023-04-03T06:19:42;6.47;;;3.15;;
69894;SDS011;57172;52.034;5.090;2023-04-03T06:22:09;7.18;;;3.00;;
69894;SDS011;57172;52.034;5.090;2023-04-03T06:24:38;6.43;;;2.92;;
69894;SDS011;57172;52.034;5.090;2023-04-03T06:27:04;8.00;;;3.03;;
69894;SDS011;57172;52.034;5.090;2023-04-03T06:29:31;8.40;;;3.25;;
69894;SDS011;57172;52.034;5.090;2023-04-03T06:31:58;9.68;;;2.90;;
69894;SDS011;57172;52.034;5.090;2023-04-03T06:34:25;6.90;;;2.97;;
69894;SDS011;57172;52.034;5.090;2023-04-03T06:36:52;8.63;;;3.03;;
69894;SDS011;57172;52.034;5.090;2023-04-03T06:39:20;6.95;;;2.67;;
69894;SDS011;57172;52.034;5.090;2023-04-03T06:41:49;9.13;;;2.83;;
69894;SDS011;57172;52.034;5.090;2023-04-03T06:44:24;8.38;;;2.53;;
69894;SDS011;57172;52.034;5.090;2023-04-03T06:46:51;6.78;;;2.80;;
69894;SDS011;57172;52.034;5.090;2023-04-03T06:49:20;7.43;;;2.88;;
69894;SDS011;57172;52.034;5.090;2023-04-03T06:51:47;6.00;;;2.95;;
69894;SDS011;57172;52.034;5.090;2023-04-03T06:54:14;6.78;;;2.70;;
69894;SDS011;57172;52.034;5.090;2023-04-03T06:56:41;8.30;;;2.60;;
69894;SDS011;57172;52.034;5.090;2023-04-03T06:59:09;7.53;;;2.72;;
69894;SDS011;57172;52.034;5.090;2023-04-03T07:01:39;6.07;;;2.40;;
69894;SDS011;57172;52.034;5.090;2023-04-03T07:04:07;6.65;;;2.60;;
69894;SDS011;57172;52.034;5.090;2023-04-03T07:06:34;12.68;;;2.90;;
69894;SDS011;57172;52.034;5.090;2023-04-03T07:09:02;5.82;;;2.63;;
69894;SDS011;57172;52.034;5.090;2023-04-03T07:11:29;7.97;;;2.95;;
69894;SDS011;57172;52.034;5.090;2023-04-03T07:13:55;6.70;;;2.50;;
69894;SDS011;57172;52.034;5.090;2023-04-03T07:16:22;8.88;;;2.60;;
69894;SDS011;57172;52.034;5.090;2023-04-03T07:18:49;5.68;;;2.60;;
69894;SDS011;57172;52.034;5.090;2023-04-03T07:21:17;6.57;;;2.70;;
69894;SDS011;57172;52.034;5.090;2023-04-03T07:23:44;5.18;;;2.40;;
69894;SDS011;57172;52.034;5.090;2023-04-03T07:26:11;5.65;;;2.50;;
69894;SDS011;57172;52.034;5.090;2023-04-03T07:28:37;11.32;;;2.50;;
69894;SDS011;57172;52.034;5.090;2023-04-03T07:31:08;8.32;;;2.60;;
69894;SDS011;57172;52.034;5.090;2023-04-03T07:33:38;4.43;;;2.38;;
69894;SDS011;57172;52.034;5.090;2023-04-03T07:36:06;8.45;;;2.40;;
69894;SDS011;57172;52.034;5.090;2023-04-03T07:38:34;5.13;;;2.40;;
69894;SDS011;57172;52.034;5.090;2023-04-03T07:41:02;9.88;;;2.50;;
69894;SDS011;57172;52.034;5.090;2023-04-03T07:43:30;5.13;;;2.30;;
69894;SDS011;57172;52.034;5.090;2023-04-03T07:45:56;6.55;;;2.30;;
69894;SDS011;57172;52.034;5.090;2023-04-03T07:48:24;6.47;;;2.20;;
69894;SDS011;57172;52.034;5.090;2023-04-03T07:50:51;4.60;;;2.10;;
69894;SDS011;57172;52.034;5.090;2023-04-03T07:53:19;4.70;;;2.10;;
69894;SDS011;57172;52.034;5.090;2023-04-03T07:55:46;5.30;;;2.30;;
69894;SDS011;57172;52.034;5.090;2023-04-03T07:58:16;4.65;;;2.08;;
69894;SDS011;57172;52.034;5.090;2023-04-03T08:00:44;6.30;;;2.10;;
69894;SDS011;57172;52.034;5.090;2023-04-03T08:03:12;4.70;;;1.98;;
69894;SDS011;57172;52.034;5.090;2023-04-03T08:05:40;5.50;;;2.10;;
69894;SDS011;57172;52.034;5.090;2023-04-03T08:08:09;4.68;;;2.08;;
69894;SDS011;57172;52.034;5.090;2023-04-03T08:10:38;5.43;;;2.20;;
69894;SDS011;57172;52.034;5.090;2023-04-03T08:13:05;5.03;;;2.00;;
69894;SDS011;57172;52.034;5.090;2023-04-03T08:15:32;4.85;;;2.17;;
69894;SDS011;57172;52.034;5.090;2023-04-03T08:17:59;8.18;;;2.20;;
69894;SDS011;57172;52.034;5.090;2023-04-03T08:20:27;5.63;;;1.90;;
69894;SDS011;57172;52.034;5.090;2023-04-03T08:22:54;5.13;;;2.13;;
69894;SDS011;57172;52.034;5.090;2023-04-03T08:25:21;4.13;;;2.03;;
69894;SDS011;57172;52.034;5.090;2023-04-03T08:27:48;5.10;;;2.25;;
69894;SDS011;57172;52.034;5.090;2023-04-03T08:30:15;4.22;;;2.05;;
69894;SDS011;57172;52.034;5.090;2023-04-03T08:32:42;4.72;;;1.95;;
69894;SDS011;57172;52.034;5.090;2023-04-03T08:35:10;3.92;;;2.03;;
69894;SDS011;57172;52.034;5.090;2023-04-03T08:37:38;6.13;;;2.20;;
69894;SDS011;57172;52.034;5.090;2023-04-03T08:40:06;4.57;;;2.17;;
69894;SDS011;57172;52.034;5.090;2023-04-03T08:42:41;6.18;;;2.00;;
69894;SDS011;57172;52.034;5.090;2023-04-03T08:48:23;8.98;;;2.10;;
69894;SDS011;57172;52.034;5.090;2023-04-03T08:51:08;5.77;;;2.00;;
69894;SDS011;57172;52.034;5.090;2023-04-03T08:53:48;6.80;;;2.15;;
69894;SDS011;57172;52.034;5.090;2023-04-03T08:56:30;6.13;;;2.10;;
69894;SDS011;57172;52.034;5.090;2023-04-03T08:59:00;4.53;;;1.90;;
69894;SDS011;57172;52.034;5.090;2023-04-03T09:01:34;4.18;;;1.90;;
69894;SDS011;57172;52.034;5.090;2023-04-03T09:04:05;4.80;;;1.90;;
69894;SDS011;57172;52.034;5.090;2023-04-03T09:06:41;3.30;;;1.77;;
69894;SDS011;57172;52.034;5.090;2023-04-03T09:12:00;4.15;;;1.70;;
69894;SDS011;57172;52.034;5.090;2023-04-03T09:14:36;4.88;;;1.80;;
69894;SDS011;57172;52.034;5.090;2023-04-03T09:22:26;5.20;;;1.75;;
69894;SDS011;57172;52.034;5.090;2023-04-03T09:25:02;3.10;;;1.75;;
69894;SDS011;57172;52.034;5.090;2023-04-03T09:27:36;3.42;;;1.50;;
69894;SDS011;57172;52.034;5.090;2023-04-03T09:30:04;3.33;;;1.60;;
69894;SDS011;57172;52.034;5.090;2023-04-03T09:32:34;4.00;;;1.42;;
69894;SDS011;57172;52.034;5.090;2023-04-03T09:35:03;3.63;;;1.50;;
69894;SDS011;57172;52.034;5.090;2023-04-03T09:37:49;3.70;;;1.42;;
69894;SDS011;57172;52.034;5.090;2023-04-03T09:40:31;3.78;;;1.30;;
69894;SDS011;57172;52.034;5.090;2023-04-03T09:43:08;2.50;;;1.30;;
69894;SDS011;57172;52.034;5.090;2023-04-03T09:45:47;2.55;;;1.30;;
69894;SDS011;57172;52.034;5.090;2023-04-03T09:53:33;3.08;;;1.38;;
69894;SDS011;57172;52.034;5.090;2023-04-03T09:58:45;1.98;;;1.27;;
69894;SDS011;57172;52.034;5.090;2023-04-03T10:11:57;3.10;;;1.33;;
69894;SDS011;57172;52.034;5.090;2023-04-03T10:14:25;1.92;;;1.20;;
69894;SDS011;57172;52.034;5.090;2023-04-03T10:19:45;2.97;;;1.38;;
69894;SDS011;57172;52.034;5.090;2023-04-03T10:22:29;1.67;;;1.10;;
69894;SDS011;57172;52.034;5.090;2023-04-03T10:27:44;1.95;;;1.17;;
69894;SDS011;57172;52.034;5.090;2023-04-03T10:33:20;3.60;;;1.20;;
69894;SDS011;57172;52.034;5.090;2023-04-03T10:41:47;1.50;;;1.00;;
69894;SDS011;57172;52.034;5.090;2023-04-03T10:47:15;1.88;;;1.10;;
69894;SDS011;57172;52.034;5.090;2023-04-03T10:52:36;1.73;;;1.10;;
69894;SDS011;57172;52.034;5.090;2023-04-03T10:55:30;1.63;;;1.10;;
69894;SDS011;57172;52.034;5.090;2023-04-03T10:58:02;2.95;;;1.30;;
69894;SDS011;57172;52.034;5.090;2023-04-03T11:00:44;1.52;;;1.10;;
69894;SDS011;57172;52.034;5.090;2023-04-03T11:03:16;2.00;;;1.20;;
69894;SDS011;57172;52.034;5.090;2023-04-03T11:06:00;1.67;;;1.10;;
69894;SDS011;57172;52.034;5.090;2023-04-03T11:11:13;1.30;;;1.00;;
69894;SDS011;57172;52.034;5.090;2023-04-03T11:14:27;1.20;;;1.10;;
69894;SDS011;57172;52.034;5.090;2023-04-03T11:16:46;1.70;;;1.10;;
69894;SDS011;57172;52.034;5.090;2023-04-03T11:19:21;2.22;;;1.20;;
69894;SDS011;57172;52.034;5.090;2023-04-03T11:22:00;2.65;;;1.20;;
69894;SDS011;57172;52.034;5.090;2023-04-03T11:24:46;2.40;;;1.20;;
69894;SDS011;57172;52.034;5.090;2023-04-03T11:27:22;1.80;;;1.20;;
69894;SDS011;57172;52.034;5.090;2023-04-03T11:29:50;1.40;;;1.23;;
69894;SDS011;57172;52.034;5.090;2023-04-03T11:35:23;1.92;;;1.20;;
69894;SDS011;57172;52.034;5.090;2023-04-03T11:37:52;2.20;;;1.27;;
69894;SDS011;57172;52.034;5.090;2023-04-03T11:40:31;2.58;;;1.25;;
69894;SDS011;57172;52.034;5.090;2023-04-03T11:43:15;2.53;;;1.40;;
69894;SDS011;57172;52.034;5.090;2023-04-03T11:50:58;2.88;;;1.40;;
69894;SDS011;57172;52.034;5.090;2023-04-03T11:56:03;2.67;;;1.30;;
69894;SDS011;57172;52.034;5.090;2023-04-03T11:58:34;2.92;;;1.40;;
69894;SDS011;57172;52.034;5.090;2023-04-03T12:01:05;3.95;;;1.42;;
69894;SDS011;57172;52.034;5.090;2023-04-03T12:08:46;2.90;;;1.40;;
69894;SDS011;57172;52.034;5.090;2023-04-03T12:11:26;2.97;;;1.42;;
69894;SDS011;57172;52.034;5.090;2023-04-03T12:24:29;2.55;;;1.40;;
69894;SDS011;57172;52.034;5.090;2023-04-03T12:37:51;2.42;;;1.42;;
69894;SDS011;57172;52.034;5.090;2023-04-03T12:40:37;3.38;;;1.42;;
69894;SDS011;57172;52.034;5.090;2023-04-03T12:45:59;2.33;;;1.35;;
69894;SDS011;57172;52.034;5.090;2023-04-03T12:48:38;3.57;;;1.63;;
69894;SDS011;57172;52.034;5.090;2023-04-03T12:51:18;4.57;;;1.58;;
69894;SDS011;57172;52.034;5.090;2023-04-03T12:53:57;4.28;;;1.92;;
69894;SDS011;57172;52.034;5.090;2023-04-03T12:56:30;3.17;;;1.60;;
69894;SDS011;57172;52.034;5.090;2023-04-03T13:01:44;2.70;;;1.60;;
69894;SDS011;57172;52.034;5.090;2023-04-03T13:04:24;3.10;;;1.50;;
69894;SDS011;57172;52.034;5.090;2023-04-03T13:06:52;2.70;;;1.50;;
69894;SDS011;57172;52.034;5.090;2023-04-03T13:09:23;2.85;;;1.58;;
69894;SDS011;57172;52.034;5.090;2023-04-03T13:11:58;2.70;;;1.40;;
69894;SDS011;57172;52.034;5.090;2023-04-03T13:14:29;2.17;;;1.40;;
69894;SDS011;57172;52.034;5.090;2023-04-03T13:17:05;2.60;;;1.50;;
69894;SDS011;57172;52.034;5.090;2023-04-03T13:19:39;2.80;;;1.58;;
69894;SDS011;57172;52.034;5.090;2023-04-03T13:22:10;2.17;;;1.40;;
69894;SDS011;57172;52.034;5.090;2023-04-03T13:25:06;3.25;;;1.60;;
69894;SDS011;57172;52.034;5.090;2023-04-03T13:27:35;1.87;;;1.30;;
69894;SDS011;57172;52.034;5.090;2023-04-03T13:30:05;3.65;;;1.63;;
69894;SDS011;57172;52.034;5.090;2023-04-03T13:32:33;3.60;;;1.50;;
69894;SDS011;57172;52.034;5.090;2023-04-03T13:35:01;2.55;;;1.48;;
69894;SDS011;57172;52.034;5.090;2023-04-03T13:37:52;3.05;;;1.50;;
69894;SDS011;57172;52.034;5.090;2023-04-03T13:40:21;4.17;;;1.70;;
69894;SDS011;57172;52.034;5.090;2023-04-03T13:42:58;3.88;;;1.40;;
69894;SDS011;57172;52.034;5.090;2023-04-03T13:45:53;2.72;;;1.50;;
69894;SDS011;57172;52.034;5.090;2023-04-03T13:48:26;3.83;;;1.70;;
69894;SDS011;57172;52.034;5.090;2023-04-03T13:56:38;2.33;;;1.55;;
69894;SDS011;57172;52.034;5.090;2023-04-03T14:01:46;3.65;;;1.50;;
69894;SDS011;57172;52.034;5.090;2023-04-03T14:04:21;5.18;;;1.60;;
69894;SDS011;57172;52.034;5.090;2023-04-03T14:06:54;3.40;;;1.60;;
69894;SDS011;57172;52.034;5.090;2023-04-03T14:09:22;3.08;;;1.60;;
69894;SDS011;57172;52.034;5.090;2023-04-03T14:11:52;3.50;;;1.55;;
69894;SDS011;57172;52.034;5.090;2023-04-03T14:14:23;3.25;;;1.60;;
69894;SDS011;57172;52.034;5.090;2023-04-03T14:16:58;3.58;;;1.70;;
69894;SDS011;57172;52.034;5.090;2023-04-03T14:19:31;3.77;;;1.83;;
69894;SDS011;57172;52.034;5.090;2023-04-03T14:22:00;4.97;;;1.80;;
69894;SDS011;57172;52.034;5.090;2023-04-03T14:24:32;4.82;;;1.73;;
69894;SDS011;57172;52.034;5.090;2023-04-03T14:27:00;2.92;;;1.67;;
69894;SDS011;57172;52.034;5.090;2023-04-03T14:29:28;3.95;;;1.80;;
69894;SDS011;57172;52.034;5.090;2023-04-03T14:31:55;3.80;;;1.80;;
69894;SDS011;57172;52.034;5.090;2023-04-03T14:34:41;3.88;;;2.00;;
69894;SDS011;57172;52.034;5.090;2023-04-03T14:37:10;3.58;;;1.90;;
69894;SDS011;57172;52.034;5.090;2023-04-03T14:39:42;3.95;;;1.90;;
69894;SDS011;57172;52.034;5.090;2023-04-03T14:42:14;3.65;;;1.60;;
69894;SDS011;57172;52.034;5.090;2023-04-03T14:44:43;3.23;;;1.60;;
69894;SDS011;57172;52.034;5.090;2023-04-03T14:47:12;3.35;;;1.60;;
69894;SDS011;57172;52.034;5.090;2023-04-03T14:49:56;2.92;;;1.60;;
69894;SDS011;57172;52.034;5.090;2023-04-03T14:52:25;4.05;;;1.80;;
69894;SDS011;57172;52.034;5.090;2023-04-03T14:54:54;4.25;;;1.60;;
69894;SDS011;57172;52.034;5.090;2023-04-03T14:57:22;3.47;;;1.70;;
69894;SDS011;57172;52.034;5.090;2023-04-03T14:59:52;3.05;;;1.80;;
69894;SDS011;57172;52.034;5.090;2023-04-03T15:02:24;4.63;;;2.00;;
69894;SDS011;57172;52.034;5.090;2023-04-03T15:04:59;3.10;;;1.73;;
69894;SDS011;57172;52.034;5.090;2023-04-03T15:07:30;3.28;;;1.52;;
69894;SDS011;57172;52.034;5.090;2023-04-03T15:10:20;3.83;;;1.80;;
69894;SDS011;57172;52.034;5.090;2023-04-03T15:12:55;2.58;;;1.70;;
69894;SDS011;57172;52.034;5.090;2023-04-03T15:15:23;3.47;;;1.83;;
69894;SDS011;57172;52.034;5.090;2023-04-03T15:17:52;3.42;;;1.70;;
69894;SDS011;57172;52.034;5.090;2023-04-03T15:20:22;4.50;;;1.90;;
69894;SDS011;57172;52.034;5.090;2023-04-03T15:22:51;4.10;;;2.00;;
69894;SDS011;57172;52.034;5.090;2023-04-03T15:25:18;4.00;;;1.70;;
69894;SDS011;57172;52.034;5.090;2023-04-03T15:27:45;5.55;;;2.00;;
69894;SDS011;57172;52.034;5.090;2023-04-03T15:30:15;3.80;;;1.85;;
69894;SDS011;57172;52.034;5.090;2023-04-03T15:32:44;3.10;;;1.80;;
69894;SDS011;57172;52.034;5.090;2023-04-03T15:35:11;3.00;;;1.87;;
69894;SDS011;57172;52.034;5.090;2023-04-03T15:37:37;5.45;;;1.70;;
69894;SDS011;57172;52.034;5.090;2023-04-03T15:40:05;4.20;;;1.80;;
69894;SDS011;57172;52.034;5.090;2023-04-03T15:42:32;2.70;;;1.70;;
69894;SDS011;57172;52.034;5.090;2023-04-03T15:45:00;4.45;;;1.80;;
69894;SDS011;57172;52.034;5.090;2023-04-03T15:47:27;3.33;;;1.80;;
69894;SDS011;57172;52.034;5.090;2023-04-03T15:49:54;3.50;;;1.90;;
69894;SDS011;57172;52.034;5.090;2023-04-03T15:52:22;4.82;;;1.95;;
69894;SDS011;57172;52.034;5.090;2023-04-03T15:54:49;4.97;;;1.80;;
69894;SDS011;57172;52.034;5.090;2023-04-03T15:57:16;4.28;;;2.00;;
69894;SDS011;57172;52.034;5.090;2023-04-03T15:59:43;6.20;;;1.97;;
69894;SDS011;57172;52.034;5.090;2023-04-03T16:02:11;5.10;;;2.03;;
69894;SDS011;57172;52.034;5.090;2023-04-03T16:04:39;3.72;;;1.90;;
69894;SDS011;57172;52.034;5.090;2023-04-03T16:07:07;3.85;;;1.92;;
69894;SDS011;57172;52.034;5.090;2023-04-03T16:09:34;3.97;;;2.00;;
69894;SDS011;57172;52.034;5.090;2023-04-03T16:12:02;4.13;;;2.00;;
69894;SDS011;57172;52.034;5.090;2023-04-03T16:14:29;3.47;;;1.80;;
69894;SDS011;57172;52.034;5.090;2023-04-03T16:16:57;5.38;;;2.08;;
69894;SDS011;57172;52.034;5.090;2023-04-03T16:19:28;4.07;;;1.95;;
69894;SDS011;57172;52.034;5.090;2023-04-03T16:21:56;5.95;;;2.10;;
69894;SDS011;57172;52.034;5.090;2023-04-03T16:24:23;5.10;;;2.03;;
69894;SDS011;57172;52.034;5.090;2023-04-03T16:26:50;4.43;;;2.00;;
69894;SDS011;57172;52.034;5.090;2023-04-03T16:29:17;4.20;;;2.00;;
69894;SDS011;57172;52.034;5.090;2023-04-03T16:31:44;5.72;;;2.00;;
69894;SDS011;57172;52.034;5.090;2023-04-03T16:34:11;3.53;;;1.77;;
69894;SDS011;57172;52.034;5.090;2023-04-03T16:36:38;3.60;;;1.90;;
69894;SDS011;57172;52.034;5.090;2023-04-03T16:39:05;4.13;;;1.90;;
69894;SDS011;57172;52.034;5.090;2023-04-03T16:41:32;4.80;;;1.90;;
69894;SDS011;57172;52.034;5.090;2023-04-03T16:43:59;3.90;;;1.90;;
69894;SDS011;57172;52.034;5.090;2023-04-03T16:46:26;5.72;;;1.90;;
69894;SDS011;57172;52.034;5.090;2023-04-03T16:48:53;3.87;;;2.00;;
69894;SDS011;57172;52.034;5.090;2023-04-03T16:51:20;3.80;;;2.00;;
69894;SDS011;57172;52.034;5.090;2023-04-03T16:53:47;5.57;;;2.22;;
69894;SDS011;57172;52.034;5.090;2023-04-03T16:56:13;5.03;;;1.90;;